sensor_id;sensor_type;location;lat;lon;timestamp;P1;durP1;ratioP1;P2;durP2;ratioP2
67819;SDS011;54618;52.018;5.576;2022-10-16T00:00:18;2.60;;;1.00;;
67819;SDS011;54618;52.018;5.576;2022-10-16T00:02:44;1.77;;;1.00;;
67819;SDS011;54618;52.018;5.576;2022-10-16T00:05:09;1.58;;;0.98;;
67819;SDS011;54618;52.018;5.576;2022-10-16T00:07:35;3.17;;;1.20;;
67819;SDS011;54618;52.018;5.576;2022-10-16T00:10:00;2.08;;;1.00;;
67819;SDS011;54618;52.018;5.576;2022-10-16T00:12:26;2.10;;;1.05;;
67819;SDS011;54618;52.018;5.576;2022-10-16T00:14:51;2.20;;;1.05;;
67819;SDS011;54618;52.018;5.576;2022-10-16T00:17:17;2.80;;;1.17;;
67819;SDS011;54618;52.018;5.576;2022-10-16T00:19:42;1.90;;;1.02;;
67819;SDS011;54618;52.018;5.576;2022-10-16T00:22:08;2.63;;;1.00;;
67819;SDS011;54618;52.018;5.576;2022-10-16T00:24:33;2.10;;;1.02;;
67819;SDS011;54618;52.018;5.576;2022-10-16T00:26:59;3.20;;;1.35;;
67819;SDS011;54618;52.018;5.576;2022-10-16T00:29:24;1.98;;;1.08;;
67819;SDS011;54618;52.018;5.576;2022-10-16T00:31:50;1.77;;;1.10;;
67819;SDS011;54618;52.018;5.576;2022-10-16T00:34:15;2.88;;;1.40;;
67819;SDS011;54618;52.018;5.576;2022-10-16T00:36:41;2.00;;;1.13;;
67819;SDS011;54618;52.018;5.576;2022-10-16T00:39:06;1.98;;;0.93;;
67819;SDS011;54618;52.018;5.576;2022-10-16T00:41:32;2.05;;;1.08;;
67819;SDS011;54618;52.018;5.576;2022-10-16T00:43:59;3.00;;;1.35;;
67819;SDS011;54618;52.018;5.576;2022-10-16T00:46:44;2.15;;;1.10;;
67819;SDS011;54618;52.018;5.576;2022-10-16T00:49:10;2.63;;;1.10;;
67819;SDS011;54618;52.018;5.576;2022-10-16T00:51:45;2.15;;;0.90;;
67819;SDS011;54618;52.018;5.576;2022-10-16T00:54:29;2.25;;;1.00;;
67819;SDS011;54618;52.018;5.576;2022-10-16T00:56:56;2.38;;;0.93;;
67819;SDS011;54618;52.018;5.576;2022-10-16T00:59:26;2.03;;;1.00;;
67819;SDS011;54618;52.018;5.576;2022-10-16T01:01:54;3.17;;;1.35;;
67819;SDS011;54618;52.018;5.576;2022-10-16T01:04:21;1.83;;;1.10;;
67819;SDS011;54618;52.018;5.576;2022-10-16T01:06:51;2.00;;;1.00;;
67819;SDS011;54618;52.018;5.576;2022-10-16T01:12:15;2.15;;;1.05;;
67819;SDS011;54618;52.018;5.576;2022-10-16T01:14:59;1.33;;;0.85;;
67819;SDS011;54618;52.018;5.576;2022-10-16T01:20:27;2.75;;;1.08;;
67819;SDS011;54618;52.018;5.576;2022-10-16T01:25:36;1.98;;;1.10;;
67819;SDS011;54618;52.018;5.576;2022-10-16T01:28:16;2.03;;;1.00;;
67819;SDS011;54618;52.018;5.576;2022-10-16T01:30:46;2.00;;;1.00;;
67819;SDS011;54618;52.018;5.576;2022-10-16T01:33:20;2.72;;;1.25;;
67819;SDS011;54618;52.018;5.576;2022-10-16T01:35:53;1.70;;;1.00;;
67819;SDS011;54618;52.018;5.576;2022-10-16T01:40:55;1.92;;;0.95;;
67819;SDS011;54618;52.018;5.576;2022-10-16T01:43:26;3.08;;;1.13;;
67819;SDS011;54618;52.018;5.576;2022-10-16T01:45:58;2.58;;;1.00;;
67819;SDS011;54618;52.018;5.576;2022-10-16T01:48:25;2.47;;;1.10;;
67819;SDS011;54618;52.018;5.576;2022-10-16T01:50:54;2.15;;;1.00;;
67819;SDS011;54618;52.018;5.576;2022-10-16T01:53:24;2.60;;;0.90;;
67819;SDS011;54618;52.018;5.576;2022-10-16T01:55:51;2.55;;;1.15;;
67819;SDS011;54618;52.018;5.576;2022-10-16T01:58:19;1.90;;;0.90;;
67819;SDS011;54618;52.018;5.576;2022-10-16T02:00:47;1.98;;;1.05;;
67819;SDS011;54618;52.018;5.576;2022-10-16T02:03:13;2.80;;;1.00;;
67819;SDS011;54618;52.018;5.576;2022-10-16T02:05:53;2.27;;;1.13;;
67819;SDS011;54618;52.018;5.576;2022-10-16T02:08:22;1.98;;;1.10;;
67819;SDS011;54618;52.018;5.576;2022-10-16T02:10:49;2.42;;;0.80;;
67819;SDS011;54618;52.018;5.576;2022-10-16T02:13:22;1.77;;;1.00;;
67819;SDS011;54618;52.018;5.576;2022-10-16T02:15:52;2.05;;;1.00;;
67819;SDS011;54618;52.018;5.576;2022-10-16T02:18:18;1.90;;;1.05;;
67819;SDS011;54618;52.018;5.576;2022-10-16T02:20:48;1.90;;;0.82;;
67819;SDS011;54618;52.018;5.576;2022-10-16T02:23:19;1.85;;;1.00;;
67819;SDS011;54618;52.018;5.576;2022-10-16T02:26:03;2.92;;;1.08;;
67819;SDS011;54618;52.018;5.576;2022-10-16T02:28:39;2.40;;;1.00;;
67819;SDS011;54618;52.018;5.576;2022-10-16T02:31:11;1.88;;;0.80;;
67819;SDS011;54618;52.018;5.576;2022-10-16T02:33:40;1.85;;;1.10;;
67819;SDS011;54618;52.018;5.576;2022-10-16T02:36:08;1.80;;;0.95;;
67819;SDS011;54618;52.018;5.576;2022-10-16T02:38:33;1.23;;;0.85;;
67819;SDS011;54618;52.018;5.576;2022-10-16T02:41:00;1.48;;;0.80;;
67819;SDS011;54618;52.018;5.576;2022-10-16T02:43:25;3.13;;;1.00;;
67819;SDS011;54618;52.018;5.576;2022-10-16T02:45:51;2.38;;;0.98;;
67819;SDS011;54618;52.018;5.576;2022-10-16T02:48:17;1.85;;;1.00;;
67819;SDS011;54618;52.018;5.576;2022-10-16T02:50:42;2.22;;;1.10;;
67819;SDS011;54618;52.018;5.576;2022-10-16T02:53:08;1.50;;;1.00;;
67819;SDS011;54618;52.018;5.576;2022-10-16T02:55:33;2.53;;;1.00;;
67819;SDS011;54618;52.018;5.576;2022-10-16T02:57:59;2.28;;;0.90;;
67819;SDS011;54618;52.018;5.576;2022-10-16T03:00:24;1.83;;;1.00;;
67819;SDS011;54618;52.018;5.576;2022-10-16T03:02:50;2.35;;;1.23;;
67819;SDS011;54618;52.018;5.576;2022-10-16T03:05:15;1.92;;;1.17;;
67819;SDS011;54618;52.018;5.576;2022-10-16T03:07:41;1.55;;;1.00;;
67819;SDS011;54618;52.018;5.576;2022-10-16T03:10:07;1.75;;;1.00;;
67819;SDS011;54618;52.018;5.576;2022-10-16T03:12:33;1.50;;;0.90;;
67819;SDS011;54618;52.018;5.576;2022-10-16T03:14:58;2.15;;;1.00;;
67819;SDS011;54618;52.018;5.576;2022-10-16T03:17:24;2.83;;;1.10;;
67819;SDS011;54618;52.018;5.576;2022-10-16T03:19:50;3.67;;;1.33;;
67819;SDS011;54618;52.018;5.576;2022-10-16T03:22:15;1.98;;;1.00;;
67819;SDS011;54618;52.018;5.576;2022-10-16T03:24:41;2.38;;;1.10;;
67819;SDS011;54618;52.018;5.576;2022-10-16T03:27:06;2.05;;;0.98;;
67819;SDS011;54618;52.018;5.576;2022-10-16T03:29:32;2.33;;;1.00;;
67819;SDS011;54618;52.018;5.576;2022-10-16T03:31:58;2.22;;;1.00;;
67819;SDS011;54618;52.018;5.576;2022-10-16T03:34:24;2.00;;;0.90;;
67819;SDS011;54618;52.018;5.576;2022-10-16T03:36:50;1.95;;;1.17;;
67819;SDS011;54618;52.018;5.576;2022-10-16T03:39:16;1.65;;;1.00;;
67819;SDS011;54618;52.018;5.576;2022-10-16T03:41:41;1.45;;;0.90;;
67819;SDS011;54618;52.018;5.576;2022-10-16T03:44:07;2.40;;;0.95;;
67819;SDS011;54618;52.018;5.576;2022-10-16T03:46:32;1.67;;;1.00;;
67819;SDS011;54618;52.018;5.576;2022-10-16T03:48:58;1.80;;;0.95;;
67819;SDS011;54618;52.018;5.576;2022-10-16T03:51:23;2.38;;;1.10;;
67819;SDS011;54618;52.018;5.576;2022-10-16T03:53:49;1.58;;;0.90;;
67819;SDS011;54618;52.018;5.576;2022-10-16T03:56:15;2.13;;;1.10;;
67819;SDS011;54618;52.018;5.576;2022-10-16T03:58:40;1.60;;;1.00;;
67819;SDS011;54618;52.018;5.576;2022-10-16T04:01:06;2.08;;;1.05;;
67819;SDS011;54618;52.018;5.576;2022-10-16T04:03:31;1.50;;;0.90;;
67819;SDS011;54618;52.018;5.576;2022-10-16T04:05:57;3.28;;;1.20;;
67819;SDS011;54618;52.018;5.576;2022-10-16T04:08:22;1.80;;;1.00;;
67819;SDS011;54618;52.018;5.576;2022-10-16T04:10:48;1.73;;;1.00;;
67819;SDS011;54618;52.018;5.576;2022-10-16T04:13:14;1.42;;;0.95;;
67819;SDS011;54618;52.018;5.576;2022-10-16T04:15:39;1.40;;;1.00;;
67819;SDS011;54618;52.018;5.576;2022-10-16T04:18:05;1.98;;;1.20;;
67819;SDS011;54618;52.018;5.576;2022-10-16T04:20:31;1.77;;;1.00;;
67819;SDS011;54618;52.018;5.576;2022-10-16T04:22:57;1.90;;;0.93;;
67819;SDS011;54618;52.018;5.576;2022-10-16T04:25:22;2.10;;;1.00;;
67819;SDS011;54618;52.018;5.576;2022-10-16T04:27:47;3.28;;;0.80;;
67819;SDS011;54618;52.018;5.576;2022-10-16T04:30:13;1.63;;;0.90;;
67819;SDS011;54618;52.018;5.576;2022-10-16T04:32:39;2.03;;;1.27;;
67819;SDS011;54618;52.018;5.576;2022-10-16T04:35:05;2.55;;;0.90;;
67819;SDS011;54618;52.018;5.576;2022-10-16T04:37:31;2.63;;;1.00;;
67819;SDS011;54618;52.018;5.576;2022-10-16T04:39:57;1.85;;;0.80;;
67819;SDS011;54618;52.018;5.576;2022-10-16T04:42:23;1.70;;;0.90;;
67819;SDS011;54618;52.018;5.576;2022-10-16T04:44:48;1.40;;;0.90;;
67819;SDS011;54618;52.018;5.576;2022-10-16T04:47:14;1.67;;;0.90;;
67819;SDS011;54618;52.018;5.576;2022-10-16T04:49:39;1.65;;;0.90;;
67819;SDS011;54618;52.018;5.576;2022-10-16T04:52:05;2.40;;;0.90;;
67819;SDS011;54618;52.018;5.576;2022-10-16T04:54:30;2.00;;;0.90;;
67819;SDS011;54618;52.018;5.576;2022-10-16T04:56:56;1.55;;;0.93;;
67819;SDS011;54618;52.018;5.576;2022-10-16T04:59:22;3.28;;;0.80;;
67819;SDS011;54618;52.018;5.576;2022-10-16T05:01:47;2.47;;;1.00;;
67819;SDS011;54618;52.018;5.576;2022-10-16T05:04:13;1.83;;;0.93;;
67819;SDS011;54618;52.018;5.576;2022-10-16T05:06:40;2.13;;;0.93;;
67819;SDS011;54618;52.018;5.576;2022-10-16T05:09:05;1.20;;;0.80;;
67819;SDS011;54618;52.018;5.576;2022-10-16T05:11:31;1.63;;;0.88;;
67819;SDS011;54618;52.018;5.576;2022-10-16T05:13:57;1.23;;;0.80;;
67819;SDS011;54618;52.018;5.576;2022-10-16T05:16:23;2.60;;;1.10;;
67819;SDS011;54618;52.018;5.576;2022-10-16T05:18:48;1.67;;;0.90;;
67819;SDS011;54618;52.018;5.576;2022-10-16T05:21:15;1.30;;;0.90;;
67819;SDS011;54618;52.018;5.576;2022-10-16T05:23:41;1.42;;;0.75;;
67819;SDS011;54618;52.018;5.576;2022-10-16T05:26:06;2.03;;;0.98;;
67819;SDS011;54618;52.018;5.576;2022-10-16T05:28:33;2.00;;;1.00;;
67819;SDS011;54618;52.018;5.576;2022-10-16T05:30:58;1.35;;;0.80;;
67819;SDS011;54618;52.018;5.576;2022-10-16T05:33:24;1.50;;;0.80;;
67819;SDS011;54618;52.018;5.576;2022-10-16T05:35:50;2.17;;;0.90;;
67819;SDS011;54618;52.018;5.576;2022-10-16T05:38:17;1.38;;;0.70;;
67819;SDS011;54618;52.018;5.576;2022-10-16T05:40:43;1.75;;;0.90;;
67819;SDS011;54618;52.018;5.576;2022-10-16T05:43:15;1.35;;;0.80;;
67819;SDS011;54618;52.018;5.576;2022-10-16T05:45:40;1.35;;;0.82;;
67819;SDS011;54618;52.018;5.576;2022-10-16T05:48:05;2.95;;;0.88;;
67819;SDS011;54618;52.018;5.576;2022-10-16T05:50:31;1.63;;;0.80;;
67819;SDS011;54618;52.018;5.576;2022-10-16T05:52:57;1.77;;;0.98;;
67819;SDS011;54618;52.018;5.576;2022-10-16T05:55:22;2.25;;;0.90;;
67819;SDS011;54618;52.018;5.576;2022-10-16T05:57:48;2.08;;;0.90;;
67819;SDS011;54618;52.018;5.576;2022-10-16T06:00:13;2.28;;;0.90;;
67819;SDS011;54618;52.018;5.576;2022-10-16T06:02:39;1.85;;;0.90;;
67819;SDS011;54618;52.018;5.576;2022-10-16T06:05:04;1.95;;;0.93;;
67819;SDS011;54618;52.018;5.576;2022-10-16T06:07:33;1.60;;;0.80;;
67819;SDS011;54618;52.018;5.576;2022-10-16T06:09:59;2.15;;;0.80;;
67819;SDS011;54618;52.018;5.576;2022-10-16T06:12:25;1.15;;;0.70;;
67819;SDS011;54618;52.018;5.576;2022-10-16T06:14:51;2.70;;;0.90;;
67819;SDS011;54618;52.018;5.576;2022-10-16T06:17:17;1.30;;;0.80;;
67819;SDS011;54618;52.018;5.576;2022-10-16T06:19:42;0.90;;;0.70;;
67819;SDS011;54618;52.018;5.576;2022-10-16T06:22:08;1.55;;;0.80;;
67819;SDS011;54618;52.018;5.576;2022-10-16T06:24:34;1.40;;;0.70;;
67819;SDS011;54618;52.018;5.576;2022-10-16T06:26:59;1.35;;;0.80;;
67819;SDS011;54618;52.018;5.576;2022-10-16T06:29:25;1.33;;;0.80;;
67819;SDS011;54618;52.018;5.576;2022-10-16T06:31:50;1.20;;;0.80;;
67819;SDS011;54618;52.018;5.576;2022-10-16T06:34:15;1.58;;;0.80;;
67819;SDS011;54618;52.018;5.576;2022-10-16T06:36:41;1.83;;;0.80;;
67819;SDS011;54618;52.018;5.576;2022-10-16T06:39:08;1.50;;;0.80;;
67819;SDS011;54618;52.018;5.576;2022-10-16T06:41:33;1.55;;;0.70;;
67819;SDS011;54618;52.018;5.576;2022-10-16T06:43:59;1.90;;;1.00;;
67819;SDS011;54618;52.018;5.576;2022-10-16T06:46:25;1.85;;;0.80;;
67819;SDS011;54618;52.018;5.576;2022-10-16T06:48:52;1.90;;;0.88;;
67819;SDS011;54618;52.018;5.576;2022-10-16T06:51:19;1.75;;;0.90;;
67819;SDS011;54618;52.018;5.576;2022-10-16T06:53:46;2.05;;;0.80;;
67819;SDS011;54618;52.018;5.576;2022-10-16T06:56:18;1.90;;;0.90;;
67819;SDS011;54618;52.018;5.576;2022-10-16T06:58:45;2.08;;;0.80;;
67819;SDS011;54618;52.018;5.576;2022-10-16T07:01:12;1.52;;;0.90;;
67819;SDS011;54618;52.018;5.576;2022-10-16T07:03:39;1.13;;;0.70;;
67819;SDS011;54618;52.018;5.576;2022-10-16T07:06:06;2.08;;;0.90;;
67819;SDS011;54618;52.018;5.576;2022-10-16T07:08:32;2.53;;;0.90;;
67819;SDS011;54618;52.018;5.576;2022-10-16T07:10:59;1.67;;;0.88;;
67819;SDS011;54618;52.018;5.576;2022-10-16T07:13:29;2.00;;;0.80;;
67819;SDS011;54618;52.018;5.576;2022-10-16T07:15:57;1.73;;;0.80;;
67819;SDS011;54618;52.018;5.576;2022-10-16T07:18:23;2.20;;;0.88;;
67819;SDS011;54618;52.018;5.576;2022-10-16T07:20:51;2.08;;;0.82;;
67819;SDS011;54618;52.018;5.576;2022-10-16T07:23:17;1.20;;;0.70;;
67819;SDS011;54618;52.018;5.576;2022-10-16T07:25:43;1.17;;;0.70;;
67819;SDS011;54618;52.018;5.576;2022-10-16T07:28:08;1.10;;;0.60;;
67819;SDS011;54618;52.018;5.576;2022-10-16T07:30:35;2.35;;;0.80;;
67819;SDS011;54618;52.018;5.576;2022-10-16T07:33:02;1.80;;;0.90;;
67819;SDS011;54618;52.018;5.576;2022-10-16T07:35:27;1.83;;;0.60;;
67819;SDS011;54618;52.018;5.576;2022-10-16T07:37:53;1.92;;;0.70;;
67819;SDS011;54618;52.018;5.576;2022-10-16T07:40:19;1.73;;;0.70;;
67819;SDS011;54618;52.018;5.576;2022-10-16T07:42:44;1.25;;;0.70;;
67819;SDS011;54618;52.018;5.576;2022-10-16T07:45:10;1.15;;;0.70;;
67819;SDS011;54618;52.018;5.576;2022-10-16T07:47:35;1.55;;;1.20;;
67819;SDS011;54618;52.018;5.576;2022-10-16T07:50:01;2.20;;;0.73;;
67819;SDS011;54618;52.018;5.576;2022-10-16T07:52:27;1.98;;;0.70;;
67819;SDS011;54618;52.018;5.576;2022-10-16T07:54:52;1.50;;;0.93;;
67819;SDS011;54618;52.018;5.576;2022-10-16T07:57:18;1.88;;;0.80;;
67819;SDS011;54618;52.018;5.576;2022-10-16T07:59:45;1.60;;;0.80;;
67819;SDS011;54618;52.018;5.576;2022-10-16T08:02:11;1.48;;;0.80;;
67819;SDS011;54618;52.018;5.576;2022-10-16T08:04:37;2.13;;;0.88;;
67819;SDS011;54618;52.018;5.576;2022-10-16T08:07:02;1.15;;;0.75;;
67819;SDS011;54618;52.018;5.576;2022-10-16T08:09:28;2.22;;;0.80;;
67819;SDS011;54618;52.018;5.576;2022-10-16T08:11:53;1.50;;;0.80;;
67819;SDS011;54618;52.018;5.576;2022-10-16T08:14:19;3.22;;;0.82;;
67819;SDS011;54618;52.018;5.576;2022-10-16T08:16:45;1.35;;;0.70;;
67819;SDS011;54618;52.018;5.576;2022-10-16T08:19:10;2.05;;;1.00;;
67819;SDS011;54618;52.018;5.576;2022-10-16T08:21:36;2.35;;;0.80;;
67819;SDS011;54618;52.018;5.576;2022-10-16T08:24:01;1.73;;;0.90;;
67819;SDS011;54618;52.018;5.576;2022-10-16T08:26:27;2.65;;;0.90;;
67819;SDS011;54618;52.018;5.576;2022-10-16T08:28:52;2.10;;;0.80;;
67819;SDS011;54618;52.018;5.576;2022-10-16T08:31:19;2.30;;;0.60;;
67819;SDS011;54618;52.018;5.576;2022-10-16T08:33:45;1.65;;;0.80;;
67819;SDS011;54618;52.018;5.576;2022-10-16T08:36:12;2.30;;;0.70;;
67819;SDS011;54618;52.018;5.576;2022-10-16T08:38:38;2.28;;;0.90;;
67819;SDS011;54618;52.018;5.576;2022-10-16T08:43:59;2.38;;;0.80;;
67819;SDS011;54618;52.018;5.576;2022-10-16T08:49:21;1.65;;;0.88;;
67819;SDS011;54618;52.018;5.576;2022-10-16T08:51:49;1.40;;;0.90;;
67819;SDS011;54618;52.018;5.576;2022-10-16T08:54:32;2.05;;;1.00;;
67819;SDS011;54618;52.018;5.576;2022-10-16T08:57:19;1.42;;;0.80;;
67819;SDS011;54618;52.018;5.576;2022-10-16T08:59:46;1.23;;;0.70;;
67819;SDS011;54618;52.018;5.576;2022-10-16T09:02:27;1.60;;;0.80;;
67819;SDS011;54618;52.018;5.576;2022-10-16T09:04:57;2.05;;;0.90;;
67819;SDS011;54618;52.018;5.576;2022-10-16T09:08:03;1.80;;;0.80;;
67819;SDS011;54618;52.018;5.576;2022-10-16T09:16:23;1.73;;;0.85;;
67819;SDS011;54618;52.018;5.576;2022-10-16T09:18:56;1.73;;;0.80;;
67819;SDS011;54618;52.018;5.576;2022-10-16T09:21:35;1.75;;;0.80;;
67819;SDS011;54618;52.018;5.576;2022-10-16T09:24:08;2.15;;;0.80;;
67819;SDS011;54618;52.018;5.576;2022-10-16T09:26:39;1.92;;;0.70;;
67819;SDS011;54618;52.018;5.576;2022-10-16T09:29:05;3.33;;;0.70;;
67819;SDS011;54618;52.018;5.576;2022-10-16T09:31:31;1.73;;;0.90;;
67819;SDS011;54618;52.018;5.576;2022-10-16T09:33:59;2.60;;;0.90;;
67819;SDS011;54618;52.018;5.576;2022-10-16T09:36:32;1.80;;;0.80;;
67819;SDS011;54618;52.018;5.576;2022-10-16T09:39:13;4.00;;;0.90;;
67819;SDS011;54618;52.018;5.576;2022-10-16T09:41:39;1.30;;;0.73;;
67819;SDS011;54618;52.018;5.576;2022-10-16T09:46:41;2.45;;;1.10;;
67819;SDS011;54618;52.018;5.576;2022-10-16T09:49:23;2.15;;;0.88;;
67819;SDS011;54618;52.018;5.576;2022-10-16T09:51:51;1.58;;;0.80;;
67819;SDS011;54618;52.018;5.576;2022-10-16T09:54:48;1.60;;;0.70;;
67819;SDS011;54618;52.018;5.576;2022-10-16T09:57:14;2.40;;;0.90;;
67819;SDS011;54618;52.018;5.576;2022-10-16T09:59:47;3.47;;;0.93;;
67819;SDS011;54618;52.018;5.576;2022-10-16T10:02:15;3.38;;;1.00;;
67819;SDS011;54618;52.018;5.576;2022-10-16T10:04:50;2.03;;;0.77;;
67819;SDS011;54618;52.018;5.576;2022-10-16T10:07:21;5.10;;;1.25;;
67819;SDS011;54618;52.018;5.576;2022-10-16T10:09:51;2.00;;;0.95;;
67819;SDS011;54618;52.018;5.576;2022-10-16T10:12:25;3.10;;;0.90;;
67819;SDS011;54618;52.018;5.576;2022-10-16T10:14:53;3.22;;;1.15;;
67819;SDS011;54618;52.018;5.576;2022-10-16T10:17:22;2.40;;;0.95;;
67819;SDS011;54618;52.018;5.576;2022-10-16T10:35:54;5.03;;;0.90;;
67819;SDS011;54618;52.018;5.576;2022-10-16T10:38:50;2.10;;;0.85;;
67819;SDS011;54618;52.018;5.576;2022-10-16T10:44:16;4.13;;;0.77;;
67819;SDS011;54618;52.018;5.576;2022-10-16T10:46:49;3.05;;;1.05;;
67819;SDS011;54618;52.018;5.576;2022-10-16T10:49:20;4.03;;;1.00;;
67819;SDS011;54618;52.018;5.576;2022-10-16T10:52:12;3.45;;;0.98;;
67819;SDS011;54618;52.018;5.576;2022-10-16T10:55:10;3.00;;;0.95;;
67819;SDS011;54618;52.018;5.576;2022-10-16T11:00:47;2.95;;;1.25;;
67819;SDS011;54618;52.018;5.576;2022-10-16T11:08:55;4.05;;;1.13;;
67819;SDS011;54618;52.018;5.576;2022-10-16T11:11:35;3.85;;;1.17;;
67819;SDS011;54618;52.018;5.576;2022-10-16T11:14:10;6.40;;;1.27;;
67819;SDS011;54618;52.018;5.576;2022-10-16T11:28:01;4.50;;;1.30;;
67819;SDS011;54618;52.018;5.576;2022-10-16T11:30:53;4.60;;;1.38;;
67819;SDS011;54618;52.018;5.576;2022-10-16T11:38:52;5.95;;;1.13;;
67819;SDS011;54618;52.018;5.576;2022-10-16T11:41:29;7.00;;;1.70;;
67819;SDS011;54618;52.018;5.576;2022-10-16T11:50:02;4.28;;;1.50;;
67819;SDS011;54618;52.018;5.576;2022-10-16T11:52:51;5.85;;;1.15;;
67819;SDS011;54618;52.018;5.576;2022-10-16T11:55:39;5.70;;;1.58;;
67819;SDS011;54618;52.018;5.576;2022-10-16T12:03:28;5.00;;;1.33;;
67819;SDS011;54618;52.018;5.576;2022-10-16T12:08:30;4.70;;;1.20;;
67819;SDS011;54618;52.018;5.576;2022-10-16T12:11:08;3.95;;;1.30;;
67819;SDS011;54618;52.018;5.576;2022-10-16T12:13:47;4.00;;;1.35;;
67819;SDS011;54618;52.018;5.576;2022-10-16T12:18:45;5.25;;;1.40;;
67819;SDS011;54618;52.018;5.576;2022-10-16T12:21:15;5.43;;;1.45;;
67819;SDS011;54618;52.018;5.576;2022-10-16T12:23:50;3.45;;;1.33;;
67819;SDS011;54618;52.018;5.576;2022-10-16T12:26:34;3.55;;;1.30;;
67819;SDS011;54618;52.018;5.576;2022-10-16T12:31:59;6.18;;;1.30;;
67819;SDS011;54618;52.018;5.576;2022-10-16T12:34:29;5.05;;;1.20;;
67819;SDS011;54618;52.018;5.576;2022-10-16T12:37:18;5.05;;;1.50;;
67819;SDS011;54618;52.018;5.576;2022-10-16T12:39:48;3.60;;;1.15;;
67819;SDS011;54618;52.018;5.576;2022-10-16T12:42:31;3.95;;;1.20;;
67819;SDS011;54618;52.018;5.576;2022-10-16T12:44:58;7.07;;;1.40;;
67819;SDS011;54618;52.018;5.576;2022-10-16T12:49:56;8.43;;;1.33;;
67819;SDS011;54618;52.018;5.576;2022-10-16T12:52:26;4.15;;;1.20;;
67819;SDS011;54618;52.018;5.576;2022-10-16T12:54:57;4.85;;;1.30;;
67819;SDS011;54618;52.018;5.576;2022-10-16T12:57:41;5.18;;;1.20;;
67819;SDS011;54618;52.018;5.576;2022-10-16T13:00:44;4.25;;;1.20;;
67819;SDS011;54618;52.018;5.576;2022-10-16T13:03:30;4.43;;;1.27;;
67819;SDS011;54618;52.018;5.576;2022-10-16T13:11:35;6.10;;;1.33;;
67819;SDS011;54618;52.018;5.576;2022-10-16T13:14:16;5.45;;;1.23;;
67819;SDS011;54618;52.018;5.576;2022-10-16T13:17:07;4.80;;;1.23;;
67819;SDS011;54618;52.018;5.576;2022-10-16T13:28:41;6.45;;;0.90;;
67819;SDS011;54618;52.018;5.576;2022-10-16T13:31:28;4.60;;;1.25;;
67819;SDS011;54618;52.018;5.576;2022-10-16T13:33:54;2.58;;;0.80;;
67819;SDS011;54618;52.018;5.576;2022-10-16T13:36:27;5.43;;;1.33;;
67819;SDS011;54618;52.018;5.576;2022-10-16T13:39:06;6.57;;;1.25;;
67819;SDS011;54618;52.018;5.576;2022-10-16T13:42:00;5.57;;;1.17;;
67819;SDS011;54618;52.018;5.576;2022-10-16T13:44:26;3.97;;;1.30;;
67819;SDS011;54618;52.018;5.576;2022-10-16T13:46:59;5.38;;;1.40;;
67819;SDS011;54618;52.018;5.576;2022-10-16T13:49:25;4.13;;;1.10;;
67819;SDS011;54618;52.018;5.576;2022-10-16T13:51:55;3.33;;;1.00;;
67819;SDS011;54618;52.018;5.576;2022-10-16T13:54:22;4.10;;;0.95;;
67819;SDS011;54618;52.018;5.576;2022-10-16T13:56:49;4.85;;;1.00;;
67819;SDS011;54618;52.018;5.576;2022-10-16T13:59:32;5.93;;;1.40;;
67819;SDS011;54618;52.018;5.576;2022-10-16T14:01:59;3.00;;;0.98;;
67819;SDS011;54618;52.018;5.576;2022-10-16T14:04:31;4.55;;;1.02;;
67819;SDS011;54618;52.018;5.576;2022-10-16T14:06:58;4.65;;;1.13;;
67819;SDS011;54618;52.018;5.576;2022-10-16T14:09:24;5.55;;;1.40;;
67819;SDS011;54618;52.018;5.576;2022-10-16T14:11:53;3.97;;;0.90;;
67819;SDS011;54618;52.018;5.576;2022-10-16T14:14:27;3.03;;;1.00;;
67819;SDS011;54618;52.018;5.576;2022-10-16T14:17:05;6.03;;;1.08;;
67819;SDS011;54618;52.018;5.576;2022-10-16T14:19:30;5.30;;;1.25;;
67819;SDS011;54618;52.018;5.576;2022-10-16T14:21:57;4.80;;;1.20;;
67819;SDS011;54618;52.018;5.576;2022-10-16T14:24:26;5.22;;;1.30;;
67819;SDS011;54618;52.018;5.576;2022-10-16T14:26:56;5.03;;;1.23;;
67819;SDS011;54618;52.018;5.576;2022-10-16T14:29:24;4.97;;;1.17;;
67819;SDS011;54618;52.018;5.576;2022-10-16T14:31:58;3.95;;;1.00;;
67819;SDS011;54618;52.018;5.576;2022-10-16T14:36:52;4.10;;;1.20;;
67819;SDS011;54618;52.018;5.576;2022-10-16T14:39:19;2.90;;;1.00;;
67819;SDS011;54618;52.018;5.576;2022-10-16T14:41:47;5.25;;;1.00;;
67819;SDS011;54618;52.018;5.576;2022-10-16T14:44:14;5.28;;;1.35;;
67819;SDS011;54618;52.018;5.576;2022-10-16T14:46:42;4.60;;;1.15;;
67819;SDS011;54618;52.018;5.576;2022-10-16T14:51:40;3.03;;;0.90;;
67819;SDS011;54618;52.018;5.576;2022-10-16T14:54:08;4.97;;;1.33;;
67819;SDS011;54618;52.018;5.576;2022-10-16T14:56:40;4.72;;;1.10;;
67819;SDS011;54618;52.018;5.576;2022-10-16T14:59:14;6.47;;;1.20;;
67819;SDS011;54618;52.018;5.576;2022-10-16T15:01:49;4.95;;;1.20;;
67819;SDS011;54618;52.018;5.576;2022-10-16T15:04:15;3.97;;;0.95;;
67819;SDS011;54618;52.018;5.576;2022-10-16T15:06:41;4.78;;;1.50;;
67819;SDS011;54618;52.018;5.576;2022-10-16T15:09:07;4.90;;;1.13;;
67819;SDS011;54618;52.018;5.576;2022-10-16T15:11:32;4.28;;;0.90;;
67819;SDS011;54618;52.018;5.576;2022-10-16T15:13:59;3.85;;;1.10;;
67819;SDS011;54618;52.018;5.576;2022-10-16T15:16:24;3.10;;;0.85;;
67819;SDS011;54618;52.018;5.576;2022-10-16T15:18:50;3.40;;;1.10;;
67819;SDS011;54618;52.018;5.576;2022-10-16T15:21:29;4.03;;;1.05;;
67819;SDS011;54618;52.018;5.576;2022-10-16T15:23:56;4.40;;;1.10;;
67819;SDS011;54618;52.018;5.576;2022-10-16T15:26:23;3.65;;;1.00;;
67819;SDS011;54618;52.018;5.576;2022-10-16T15:28:50;6.03;;;1.30;;
67819;SDS011;54618;52.018;5.576;2022-10-16T15:31:15;4.60;;;1.20;;
67819;SDS011;54618;52.018;5.576;2022-10-16T15:33:41;4.03;;;1.00;;
67819;SDS011;54618;52.018;5.576;2022-10-16T15:36:07;4.38;;;0.93;;
67819;SDS011;54618;52.018;5.576;2022-10-16T15:38:32;5.22;;;1.00;;
67819;SDS011;54618;52.018;5.576;2022-10-16T15:40:58;4.20;;;1.27;;
67819;SDS011;54618;52.018;5.576;2022-10-16T15:43:24;4.05;;;1.00;;
67819;SDS011;54618;52.018;5.576;2022-10-16T15:46:01;3.83;;;1.15;;
67819;SDS011;54618;52.018;5.576;2022-10-16T15:48:29;4.28;;;0.90;;
67819;SDS011;54618;52.018;5.576;2022-10-16T15:50:55;3.45;;;0.95;;
67819;SDS011;54618;52.018;5.576;2022-10-16T15:53:21;6.22;;;1.00;;
67819;SDS011;54618;52.018;5.576;2022-10-16T15:55:46;4.47;;;1.00;;
67819;SDS011;54618;52.018;5.576;2022-10-16T15:58:12;4.18;;;1.00;;
67819;SDS011;54618;52.018;5.576;2022-10-16T16:00:37;3.55;;;1.10;;
67819;SDS011;54618;52.018;5.576;2022-10-16T16:03:03;3.83;;;0.98;;
67819;SDS011;54618;52.018;5.576;2022-10-16T16:05:29;5.72;;;1.10;;
67819;SDS011;54618;52.018;5.576;2022-10-16T16:07:54;5.03;;;1.20;;
67819;SDS011;54618;52.018;5.576;2022-10-16T16:10:20;6.22;;;0.98;;
67819;SDS011;54618;52.018;5.576;2022-10-16T16:12:47;4.53;;;0.90;;
67819;SDS011;54618;52.018;5.576;2022-10-16T16:15:16;4.15;;;1.02;;
67819;SDS011;54618;52.018;5.576;2022-10-16T16:17:44;3.92;;;1.17;;
67819;SDS011;54618;52.018;5.576;2022-10-16T16:20:09;4.30;;;1.20;;
67819;SDS011;54618;52.018;5.576;2022-10-16T16:22:36;3.78;;;1.30;;
67819;SDS011;54618;52.018;5.576;2022-10-16T16:25:01;4.68;;;1.40;;
67819;SDS011;54618;52.018;5.576;2022-10-16T16:27:27;4.63;;;1.50;;
67819;SDS011;54618;52.018;5.576;2022-10-16T16:29:54;4.43;;;1.38;;
67819;SDS011;54618;52.018;5.576;2022-10-16T16:32:20;5.13;;;1.58;;
67819;SDS011;54618;52.018;5.576;2022-10-16T16:34:46;5.90;;;1.63;;
67819;SDS011;54618;52.018;5.576;2022-10-16T16:37:12;5.40;;;1.60;;
67819;SDS011;54618;52.018;5.576;2022-10-16T16:39:38;6.47;;;1.70;;
67819;SDS011;54618;52.018;5.576;2022-10-16T16:42:03;4.68;;;1.80;;
67819;SDS011;54618;52.018;5.576;2022-10-16T16:44:31;4.75;;;1.80;;
67819;SDS011;54618;52.018;5.576;2022-10-16T16:46:56;7.07;;;1.85;;
67819;SDS011;54618;52.018;5.576;2022-10-16T16:49:22;5.25;;;1.98;;